sensor_id;sensor_type;location;lat;lon;timestamp;temperature;humidity
77865;DHT22;67061;48.524;9.040;2023-02-13T00:00:55;-2.70;99.90
77865;DHT22;67061;48.524;9.040;2023-02-13T00:03:21;-2.80;99.90
77865;DHT22;67061;48.524;9.040;2023-02-13T00:05:48;-2.80;99.90
77865;DHT22;67061;48.524;9.040;2023-02-13T00:08:15;-2.80;99.90
77865;DHT22;67061;48.524;9.040;2023-02-13T00:10:43;-2.90;99.90
77865;DHT22;67061;48.524;9.040;2023-02-13T00:13:10;-2.90;99.90
77865;DHT22;67061;48.524;9.040;2023-02-13T00:15:37;-2.90;99.90
77865;DHT22;67061;48.524;9.040;2023-02-13T00:18:04;-2.90;99.90
77865;DHT22;67061;48.524;9.040;2023-02-13T00:20:31;-2.90;99.90
77865;DHT22;67061;48.524;9.040;2023-02-13T00:22:58;-2.90;99.90
77865;DHT22;67061;48.524;9.040;2023-02-13T00:25:25;-2.90;99.90
77865;DHT22;67061;48.524;9.040;2023-02-13T00:27:53;-2.90;99.90
77865;DHT22;67061;48.524;9.040;2023-02-13T00:30:20;-2.90;99.90
77865;DHT22;67061;48.524;9.040;2023-02-13T00:32:47;-2.90;99.90
77865;DHT22;67061;48.524;9.040;2023-02-13T00:35:14;-2.90;99.90
77865;DHT22;67061;48.524;9.040;2023-02-13T00:37:41;-2.90;99.90
77865;DHT22;67061;48.524;9.040;2023-02-13T00:40:09;-2.90;99.90
77865;DHT22;67061;48.524;9.040;2023-02-13T00:42:35;-2.90;99.90
77865;DHT22;67061;48.524;9.040;2023-02-13T00:45:04;-2.90;99.90
77865;DHT22;67061;48.524;9.040;2023-02-13T00:47:31;-2.90;99.90
77865;DHT22;67061;48.524;9.040;2023-02-13T00:49:58;-2.80;99.90
77865;DHT22;67061;48.524;9.040;2023-02-13T00:52:25;-2.70;99.90
77865;DHT22;67061;48.524;9.040;2023-02-13T00:54:52;-2.70;99.90
77865;DHT22;67061;48.524;9.040;2023-02-13T00:57:18;-2.70;99.90
77865;DHT22;67061;48.524;9.040;2023-02-13T00:59:45;-2.70;99.90
77865;DHT22;67061;48.524;9.040;2023-02-13T01:02:13;-2.60;99.90
77865;DHT22;67061;48.524;9.040;2023-02-13T01:04:40;-2.60;99.90
77865;DHT22;67061;48.524;9.040;2023-02-13T01:07:07;-2.60;99.90
77865;DHT22;67061;48.524;9.040;2023-02-13T01:09:34;-2.60;99.90
77865;DHT22;67061;48.524;9.040;2023-02-13T01:12:01;-2.70;99.90
77865;DHT22;67061;48.524;9.040;2023-02-13T01:14:28;-2.70;99.90
77865;DHT22;67061;48.524;9.040;2023-02-13T01:16:55;-2.70;99.90
77865;DHT22;67061;48.524;9.040;2023-02-13T01:19:23;-2.60;99.90
77865;DHT22;67061;48.524;9.040;2023-02-13T01:21:50;-2.70;99.90
77865;DHT22;67061;48.524;9.040;2023-02-13T01:24:17;-2.70;99.90
77865;DHT22;67061;48.524;9.040;2023-02-13T01:26:44;-2.70;99.90
77865;DHT22;67061;48.524;9.040;2023-02-13T01:29:11;-2.60;99.90
77865;DHT22;67061;48.524;9.040;2023-02-13T01:31:38;-2.60;99.90
77865;DHT22;67061;48.524;9.040;2023-02-13T01:34:05;-2.70;99.90
77865;DHT22;67061;48.524;9.040;2023-02-13T01:36:33;-2.70;99.90
77865;DHT22;67061;48.524;9.040;2023-02-13T01:39:00;-2.60;99.90
77865;DHT22;67061;48.524;9.040;2023-02-13T01:41:27;-2.60;99.90
77865;DHT22;67061;48.524;9.040;2023-02-13T01:43:55;-2.60;99.90
77865;DHT22;67061;48.524;9.040;2023-02-13T01:46:26;-2.60;99.90
77865;DHT22;67061;48.524;9.040;2023-02-13T01:48:58;-2.60;99.90
77865;DHT22;67061;48.524;9.040;2023-02-13T01:51:30;-2.60;99.90
77865;DHT22;67061;48.524;9.040;2023-02-13T01:54:03;-2.60;99.90
77865;DHT22;67061;48.524;9.040;2023-02-13T01:56:33;-2.60;99.90
77865;DHT22;67061;48.524;9.040;2023-02-13T01:59:04;-2.60;99.90
77865;DHT22;67061;48.524;9.040;2023-02-13T02:01:32;-2.60;99.90
77865;DHT22;67061;48.524;9.040;2023-02-13T02:04:05;-2.50;99.90
77865;DHT22;67061;48.524;9.040;2023-02-13T02:06:35;-2.50;99.90
77865;DHT22;67061;48.524;9.040;2023-02-13T02:09:07;-2.50;99.90
77865;DHT22;67061;48.524;9.040;2023-02-13T02:11:40;-2.50;99.90
77865;DHT22;67061;48.524;9.040;2023-02-13T02:14:08;-2.50;99.90
77865;DHT22;67061;48.524;9.040;2023-02-13T02:16:35;-2.60;99.90
77865;DHT22;67061;48.524;9.040;2023-02-13T02:19:05;-2.60;99.90
77865;DHT22;67061;48.524;9.040;2023-02-13T02:21:58;-2.60;99.90
77865;DHT22;67061;48.524;9.040;2023-02-13T02:27:58;-2.80;99.90
77865;DHT22;67061;48.524;9.040;2023-02-13T02:31:00;-2.90;99.90
77865;DHT22;67061;48.524;9.040;2023-02-13T02:33:46;-2.90;99.90
77865;DHT22;67061;48.524;9.040;2023-02-13T02:36:25;-2.90;99.90
77865;DHT22;67061;48.524;9.040;2023-02-13T02:39:03;-2.80;99.90
77865;DHT22;67061;48.524;9.040;2023-02-13T02:41:42;-2.90;99.90
77865;DHT22;67061;48.524;9.040;2023-02-13T02:44:25;-2.90;99.90
77865;DHT22;67061;48.524;9.040;2023-02-13T02:47:04;-2.90;99.90
77865;DHT22;67061;48.524;9.040;2023-02-13T02:50:02;-3.00;99.90
77865;DHT22;67061;48.524;9.040;2023-02-13T02:52:45;-3.00;99.90
77865;DHT22;67061;48.524;9.040;2023-02-13T02:55:23;-2.90;99.90
77865;DHT22;67061;48.524;9.040;2023-02-13T02:57:58;-2.90;99.90
77865;DHT22;67061;48.524;9.040;2023-02-13T03:00:44;-2.90;99.90
77865;DHT22;67061;48.524;9.040;2023-02-13T03:03:30;-2.90;99.90
77865;DHT22;67061;48.524;9.040;2023-02-13T03:06:18;-2.90;99.90
77865;DHT22;67061;48.524;9.040;2023-02-13T03:08:52;-2.90;99.90
77865;DHT22;67061;48.524;9.040;2023-02-13T03:11:37;-2.90;99.90
77865;DHT22;67061;48.524;9.040;2023-02-13T03:14:24;-2.90;99.90
77865;DHT22;67061;48.524;9.040;2023-02-13T03:16:52;-2.90;99.90
77865;DHT22;67061;48.524;9.040;2023-02-13T03:19:52;-2.90;99.90
77865;DHT22;67061;48.524;9.040;2023-02-13T03:22:47;-3.00;99.90
77865;DHT22;67061;48.524;9.040;2023-02-13T03:25:20;-3.00;99.90
77865;DHT22;67061;48.524;9.040;2023-02-13T03:27:57;-3.00;99.90
77865;DHT22;67061;48.524;9.040;2023-02-13T03:30:51;-3.10;99.90
77865;DHT22;67061;48.524;9.040;2023-02-13T03:33:23;-3.10;99.90
77865;DHT22;67061;48.524;9.040;2023-02-13T03:36:00;-3.10;99.90
77865;DHT22;67061;48.524;9.040;2023-02-13T03:38:51;-3.10;99.90
77865;DHT22;67061;48.524;9.040;2023-02-13T03:41:25;-3.10;99.90
77865;DHT22;67061;48.524;9.040;2023-02-13T03:44:00;-3.10;99.90
77865;DHT22;67061;48.524;9.040;2023-02-13T03:46:33;-3.10;99.90
77865;DHT22;67061;48.524;9.040;2023-02-13T03:49:04;-3.00;99.90
77865;DHT22;67061;48.524;9.040;2023-02-13T03:51:54;-3.00;99.90
77865;DHT22;67061;48.524;9.040;2023-02-13T03:54:26;-2.90;99.90
77865;DHT22;67061;48.524;9.040;2023-02-13T03:57:18;-2.90;99.90
77865;DHT22;67061;48.524;9.040;2023-02-13T04:00:08;-2.90;99.90
77865;DHT22;67061;48.524;9.040;2023-02-13T04:02:42;-2.80;99.90
77865;DHT22;67061;48.524;9.040;2023-02-13T04:05:15;-2.80;99.90
77865;DHT22;67061;48.524;9.040;2023-02-13T04:07:43;-2.80;99.90
77865;DHT22;67061;48.524;9.040;2023-02-13T04:10:14;-2.70;99.90
77865;DHT22;67061;48.524;9.040;2023-02-13T04:12:47;-2.70;99.90
77865;DHT22;67061;48.524;9.040;2023-02-13T04:15:18;-2.80;99.90
77865;DHT22;67061;48.524;9.040;2023-02-13T04:17:48;-2.70;99.90
77865;DHT22;67061;48.524;9.040;2023-02-13T04:20:18;-2.70;99.90
77865;DHT22;67061;48.524;9.040;2023-02-13T04:22:46;-2.70;99.90
77865;DHT22;67061;48.524;9.040;2023-02-13T04:25:16;-2.70;99.90
77865;DHT22;67061;48.524;9.040;2023-02-13T04:27:44;-2.90;99.90
77865;DHT22;67061;48.524;9.040;2023-02-13T04:30:12;-3.00;99.90
77865;DHT22;67061;48.524;9.040;2023-02-13T04:32:39;-3.10;99.90
77865;DHT22;67061;48.524;9.040;2023-02-13T04:35:06;-3.20;99.90
77865;DHT22;67061;48.524;9.040;2023-02-13T04:37:33;-3.10;99.90
77865;DHT22;67061;48.524;9.040;2023-02-13T04:40:00;-3.20;99.90
77865;DHT22;67061;48.524;9.040;2023-02-13T04:42:28;-3.30;99.90
77865;DHT22;67061;48.524;9.040;2023-02-13T04:44:55;-3.40;99.90
77865;DHT22;67061;48.524;9.040;2023-02-13T04:47:22;-3.50;99.90
77865;DHT22;67061;48.524;9.040;2023-02-13T04:49:49;-3.50;99.90
77865;DHT22;67061;48.524;9.040;2023-02-13T04:52:16;-3.60;99.90
77865;DHT22;67061;48.524;9.040;2023-02-13T04:54:43;-3.50;99.90
77865;DHT22;67061;48.524;9.040;2023-02-13T04:57:10;-3.50;99.90
77865;DHT22;67061;48.524;9.040;2023-02-13T04:59:38;-3.60;99.90
77865;DHT22;67061;48.524;9.040;2023-02-13T05:02:05;-3.60;99.90
77865;DHT22;67061;48.524;9.040;2023-02-13T05:04:32;-3.60;99.90
77865;DHT22;67061;48.524;9.040;2023-02-13T05:06:59;-3.70;99.90
77865;DHT22;67061;48.524;9.040;2023-02-13T05:09:26;-3.80;99.90
77865;DHT22;67061;48.524;9.040;2023-02-13T05:11:53;-3.80;99.90
77865;DHT22;67061;48.524;9.040;2023-02-13T05:14:20;-3.80;99.90
77865;DHT22;67061;48.524;9.040;2023-02-13T05:16:48;-3.90;99.90
77865;DHT22;67061;48.524;9.040;2023-02-13T05:19:15;-4.00;99.90
77865;DHT22;67061;48.524;9.040;2023-02-13T05:21:42;-4.00;99.90
77865;DHT22;67061;48.524;9.040;2023-02-13T05:24:27;-4.10;99.90
77865;DHT22;67061;48.524;9.040;2023-02-13T05:26:53;-4.10;99.90
77865;DHT22;67061;48.524;9.040;2023-02-13T05:29:20;-4.20;99.90
77865;DHT22;67061;48.524;9.040;2023-02-13T05:31:51;-4.30;99.90
77865;DHT22;67061;48.524;9.040;2023-02-13T05:34:18;-4.30;99.90
77865;DHT22;67061;48.524;9.040;2023-02-13T05:36:45;-4.30;99.90
77865;DHT22;67061;48.524;9.040;2023-02-13T05:39:12;-4.30;99.90
77865;DHT22;67061;48.524;9.040;2023-02-13T05:41:39;-4.30;99.90
77865;DHT22;67061;48.524;9.040;2023-02-13T05:44:07;-4.30;99.90
77865;DHT22;67061;48.524;9.040;2023-02-13T05:46:35;-4.40;99.90
77865;DHT22;67061;48.524;9.040;2023-02-13T05:49:04;-4.50;99.90
77865;DHT22;67061;48.524;9.040;2023-02-13T05:51:31;-4.40;99.90
77865;DHT22;67061;48.524;9.040;2023-02-13T05:53:58;-4.40;99.90
77865;DHT22;67061;48.524;9.040;2023-02-13T05:56:25;-4.40;99.90
77865;DHT22;67061;48.524;9.040;2023-02-13T05:58:53;-4.40;99.90
77865;DHT22;67061;48.524;9.040;2023-02-13T06:01:21;-4.40;99.90
77865;DHT22;67061;48.524;9.040;2023-02-13T06:03:48;-4.40;99.90
77865;DHT22;67061;48.524;9.040;2023-02-13T06:06:17;-4.40;99.90
77865;DHT22;67061;48.524;9.040;2023-02-13T06:08:44;-4.40;99.90
77865;DHT22;67061;48.524;9.040;2023-02-13T06:11:11;-4.40;99.90
77865;DHT22;67061;48.524;9.040;2023-02-13T06:13:38;-4.40;99.90
77865;DHT22;67061;48.524;9.040;2023-02-13T06:16:05;-4.40;99.90
77865;DHT22;67061;48.524;9.040;2023-02-13T06:18:33;-4.40;99.90
77865;DHT22;67061;48.524;9.040;2023-02-13T06:21:00;-4.40;99.90
77865;DHT22;67061;48.524;9.040;2023-02-13T06:23:28;-4.40;99.90
77865;DHT22;67061;48.524;9.040;2023-02-13T06:25:56;-4.60;99.90
77865;DHT22;67061;48.524;9.040;2023-02-13T06:28:22;-4.60;99.90
77865;DHT22;67061;48.524;9.040;2023-02-13T06:30:49;-4.60;99.90
77865;DHT22;67061;48.524;9.040;2023-02-13T06:33:16;-4.60;99.90
77865;DHT22;67061;48.524;9.040;2023-02-13T06:35:43;-4.40;99.90
77865;DHT22;67061;48.524;9.040;2023-02-13T06:38:10;-4.40;99.90
77865;DHT22;67061;48.524;9.040;2023-02-13T06:40:38;-4.40;99.90
77865;DHT22;67061;48.524;9.040;2023-02-13T06:43:05;-4.40;99.90
77865;DHT22;67061;48.524;9.040;2023-02-13T06:45:32;-4.50;99.90
77865;DHT22;67061;48.524;9.040;2023-02-13T06:47:58;-4.40;99.90
77865;DHT22;67061;48.524;9.040;2023-02-13T06:50:25;-4.30;99.90
77865;DHT22;67061;48.524;9.040;2023-02-13T06:52:52;-4.20;99.90
77865;DHT22;67061;48.524;9.040;2023-02-13T06:55:19;-4.20;99.90
77865;DHT22;67061;48.524;9.040;2023-02-13T06:57:47;-4.10;99.90
77865;DHT22;67061;48.524;9.040;2023-02-13T07:00:15;-4.00;99.90
77865;DHT22;67061;48.524;9.040;2023-02-13T07:02:44;-4.00;99.90
77865;DHT22;67061;48.524;9.040;2023-02-13T07:05:11;-4.00;99.90
77865;DHT22;67061;48.524;9.040;2023-02-13T07:07:40;-4.00;99.90
77865;DHT22;67061;48.524;9.040;2023-02-13T07:10:08;-4.00;99.90
77865;DHT22;67061;48.524;9.040;2023-02-13T07:12:35;-3.90;99.90
77865;DHT22;67061;48.524;9.040;2023-02-13T07:15:05;-3.80;99.90
77865;DHT22;67061;48.524;9.040;2023-02-13T07:17:32;-3.80;99.90
77865;DHT22;67061;48.524;9.040;2023-02-13T07:19:59;-3.80;99.90
77865;DHT22;67061;48.524;9.040;2023-02-13T07:22:26;-3.80;99.90
77865;DHT22;67061;48.524;9.040;2023-02-13T07:24:53;-3.70;99.90
77865;DHT22;67061;48.524;9.040;2023-02-13T07:27:20;-3.70;99.90
77865;DHT22;67061;48.524;9.040;2023-02-13T07:29:47;-3.60;99.90
77865;DHT22;67061;48.524;9.040;2023-02-13T07:32:15;-3.60;99.90
77865;DHT22;67061;48.524;9.040;2023-02-13T07:34:42;-3.60;99.90
77865;DHT22;67061;48.524;9.040;2023-02-13T07:37:09;-3.60;99.90
77865;DHT22;67061;48.524;9.040;2023-02-13T07:39:36;-3.50;99.90
77865;DHT22;67061;48.524;9.040;2023-02-13T07:42:03;-3.50;99.90
77865;DHT22;67061;48.524;9.040;2023-02-13T07:44:30;-3.50;99.90
77865;DHT22;67061;48.524;9.040;2023-02-13T07:46:57;-3.50;99.90
77865;DHT22;67061;48.524;9.040;2023-02-13T07:49:26;-3.50;99.90
77865;DHT22;67061;48.524;9.040;2023-02-13T07:51:55;-3.50;99.90
77865;DHT22;67061;48.524;9.040;2023-02-13T07:54:23;-3.50;99.90
77865;DHT22;67061;48.524;9.040;2023-02-13T07:56:50;-3.40;99.90
77865;DHT22;67061;48.524;9.040;2023-02-13T07:59:17;-3.40;99.90
77865;DHT22;67061;48.524;9.040;2023-02-13T08:01:44;-3.40;99.90
77865;DHT22;67061;48.524;9.040;2023-02-13T08:04:11;-3.30;99.90
77865;DHT22;67061;48.524;9.040;2023-02-13T08:06:40;-3.30;99.90
77865;DHT22;67061;48.524;9.040;2023-02-13T08:09:17;-3.20;99.90
77865;DHT22;67061;48.524;9.040;2023-02-13T08:12:01;-3.20;99.90
77865;DHT22;67061;48.524;9.040;2023-02-13T08:14:28;-3.20;99.90
77865;DHT22;67061;48.524;9.040;2023-02-13T08:16:58;-3.10;99.90
77865;DHT22;67061;48.524;9.040;2023-02-13T08:19:26;-3.00;99.90
77865;DHT22;67061;48.524;9.040;2023-02-13T08:21:54;-2.90;99.90
77865;DHT22;67061;48.524;9.040;2023-02-13T08:24:21;-2.70;99.90
77865;DHT22;67061;48.524;9.040;2023-02-13T08:26:48;-2.70;99.90
77865;DHT22;67061;48.524;9.040;2023-02-13T08:29:14;-2.60;99.90
77865;DHT22;67061;48.524;9.040;2023-02-13T08:31:41;-2.60;99.90
77865;DHT22;67061;48.524;9.040;2023-02-13T08:34:08;-2.50;99.90
77865;DHT22;67061;48.524;9.040;2023-02-13T08:36:36;-2.40;99.90
77865;DHT22;67061;48.524;9.040;2023-02-13T08:39:04;-2.40;99.90
77865;DHT22;67061;48.524;9.040;2023-02-13T08:41:31;-2.30;99.90
77865;DHT22;67061;48.524;9.040;2023-02-13T08:43:58;-2.20;99.90
77865;DHT22;67061;48.524;9.040;2023-02-13T08:46:25;-2.10;99.90
77865;DHT22;67061;48.524;9.040;2023-02-13T08:48:51;-2.10;99.90
77865;DHT22;67061;48.524;9.040;2023-02-13T08:51:18;-2.10;99.90
77865;DHT22;67061;48.524;9.040;2023-02-13T08:53:45;-1.90;99.90
77865;DHT22;67061;48.524;9.040;2023-02-13T08:56:14;-1.80;99.90
77865;DHT22;67061;48.524;9.040;2023-02-13T08:58:40;-1.90;99.90
77865;DHT22;67061;48.524;9.040;2023-02-13T09:01:07;-1.80;99.90
77865;DHT22;67061;48.524;9.040;2023-02-13T09:03:35;-1.70;99.90
77865;DHT22;67061;48.524;9.040;2023-02-13T09:06:02;-1.60;99.90
77865;DHT22;67061;48.524;9.040;2023-02-13T09:08:29;-1.60;99.90
77865;DHT22;67061;48.524;9.040;2023-02-13T09:10:58;-1.50;99.90
77865;DHT22;67061;48.524;9.040;2023-02-13T09:13:27;-1.60;99.90
77865;DHT22;67061;48.524;9.040;2023-02-13T09:15:57;-1.50;99.90
77865;DHT22;67061;48.524;9.040;2023-02-13T09:18:24;-1.30;99.90
77865;DHT22;67061;48.524;9.040;2023-02-13T09:20:56;-1.30;99.90
77865;DHT22;67061;48.524;9.040;2023-02-13T09:23:24;-1.10;99.90
77865;DHT22;67061;48.524;9.040;2023-02-13T09:25:51;-1.10;99.90
77865;DHT22;67061;48.524;9.040;2023-02-13T09:28:18;-1.00;99.90
77865;DHT22;67061;48.524;9.040;2023-02-13T09:30:46;-0.90;99.90
77865;DHT22;67061;48.524;9.040;2023-02-13T09:33:13;-0.70;99.90
77865;DHT22;67061;48.524;9.040;2023-02-13T09:35:40;-0.70;99.90
77865;DHT22;67061;48.524;9.040;2023-02-13T09:38:09;-0.70;99.90
77865;DHT22;67061;48.524;9.040;2023-02-13T09:40:41;-0.60;99.90
77865;DHT22;67061;48.524;9.040;2023-02-13T09:43:13;-0.50;99.90
77865;DHT22;67061;48.524;9.040;2023-02-13T09:45:43;-0.50;99.90
77865;DHT22;67061;48.524;9.040;2023-02-13T09:48:18;-0.50;99.90
77865;DHT22;67061;48.524;9.040;2023-02-13T09:50:47;-0.50;99.90
77865;DHT22;67061;48.524;9.040;2023-02-13T09:53:19;-0.40;99.90
77865;DHT22;67061;48.524;9.040;2023-02-13T09:55:53;-0.40;99.90
77865;DHT22;67061;48.524;9.040;2023-02-13T09:58:29;-0.30;99.90
77865;DHT22;67061;48.524;9.040;2023-02-13T10:01:00;-0.20;99.90
77865;DHT22;67061;48.524;9.040;2023-02-13T10:03:31;-0.20;99.90
77865;DHT22;67061;48.524;9.040;2023-02-13T10:06:06;-0.10;99.90
77865;DHT22;67061;48.524;9.040;2023-02-13T10:08:50;-0.10;99.90
77865;DHT22;67061;48.524;9.040;2023-02-13T10:11:32;-0.10;99.90
77865;DHT22;67061;48.524;9.040;2023-02-13T10:14:05;0.00;99.90
77865;DHT22;67061;48.524;9.040;2023-02-13T10:16:37;0.00;99.90
77865;DHT22;67061;48.524;9.040;2023-02-13T10:19:14;0.00;99.90
77865;DHT22;67061;48.524;9.040;2023-02-13T10:21:48;0.00;99.90
77865;DHT22;67061;48.524;9.040;2023-02-13T10:24:25;0.20;99.90
77865;DHT22;67061;48.524;9.040;2023-02-13T10:26:55;0.20;99.90
77865;DHT22;67061;48.524;9.040;2023-02-13T10:29:35;0.30;99.90
77865;DHT22;67061;48.524;9.040;2023-02-13T10:32:24;0.40;99.90
77865;DHT22;67061;48.524;9.040;2023-02-13T10:34:57;0.50;99.90
77865;DHT22;67061;48.524;9.040;2023-02-13T10:37:27;0.50;99.90
77865;DHT22;67061;48.524;9.040;2023-02-13T10:39:54;0.60;99.90
77865;DHT22;67061;48.524;9.040;2023-02-13T10:42:24;0.70;99.90
77865;DHT22;67061;48.524;9.040;2023-02-13T10:45:07;0.80;99.90
77865;DHT22;67061;48.524;9.040;2023-02-13T10:47:50;0.80;99.90
77865;DHT22;67061;48.524;9.040;2023-02-13T10:50:27;0.60;99.90
77865;DHT22;67061;48.524;9.040;2023-02-13T10:53:06;0.80;99.90
77865;DHT22;67061;48.524;9.040;2023-02-13T10:55:54;0.90;99.90
77865;DHT22;67061;48.524;9.040;2023-02-13T10:58:28;0.90;99.90
77865;DHT22;67061;48.524;9.040;2023-02-13T11:00:59;1.00;99.90
77865;DHT22;67061;48.524;9.040;2023-02-13T11:03:29;1.00;99.90
77865;DHT22;67061;48.524;9.040;2023-02-13T11:05:58;1.10;99.90
77865;DHT22;67061;48.524;9.040;2023-02-13T11:08:31;1.20;99.90
77865;DHT22;67061;48.524;9.040;2023-02-13T11:10:58;1.40;99.90
77865;DHT22;67061;48.524;9.040;2023-02-13T11:13:26;1.50;99.90
77865;DHT22;67061;48.524;9.040;2023-02-13T11:15:59;1.70;99.90
77865;DHT22;67061;48.524;9.040;2023-02-13T11:18:29;1.70;99.90
77865;DHT22;67061;48.524;9.040;2023-02-13T11:21:07;1.80;99.90
77865;DHT22;67061;48.524;9.040;2023-02-13T11:23:38;2.00;99.90
77865;DHT22;67061;48.524;9.040;2023-02-13T11:26:08;2.10;99.90
77865;DHT22;67061;48.524;9.040;2023-02-13T11:28:38;2.20;99.90
77865;DHT22;67061;48.524;9.040;2023-02-13T11:31:18;2.10;99.90
77865;DHT22;67061;48.524;9.040;2023-02-13T11:33:45;2.30;99.90
77865;DHT22;67061;48.524;9.040;2023-02-13T11:36:16;2.60;99.10
77865;DHT22;67061;48.524;9.040;2023-02-13T11:38:43;2.80;98.20
77865;DHT22;67061;48.524;9.040;2023-02-13T11:41:11;2.70;98.40
77865;DHT22;67061;48.524;9.040;2023-02-13T11:43:45;2.80;98.30
77865;DHT22;67061;48.524;9.040;2023-02-13T11:46:18;3.10;97.30
77865;DHT22;67061;48.524;9.040;2023-02-13T11:48:59;3.10;96.40
77865;DHT22;67061;48.524;9.040;2023-02-13T11:51:41;3.10;96.70
77865;DHT22;67061;48.524;9.040;2023-02-13T11:54:20;3.40;95.70
77865;DHT22;67061;48.524;9.040;2023-02-13T11:56:50;3.50;95.90
77865;DHT22;67061;48.524;9.040;2023-02-13T11:59:21;3.90;94.30
77865;DHT22;67061;48.524;9.040;2023-02-13T12:02:01;3.90;92.80
77865;DHT22;67061;48.524;9.040;2023-02-13T12:04:28;4.30;90.80
77865;DHT22;67061;48.524;9.040;2023-02-13T12:07:00;4.70;89.50
77865;DHT22;67061;48.524;9.040;2023-02-13T12:09:28;4.80;88.50
77865;DHT22;67061;48.524;9.040;2023-02-13T12:11:57;5.10;87.30
77865;DHT22;67061;48.524;9.040;2023-02-13T12:14:34;5.50;85.60
77865;DHT22;67061;48.524;9.040;2023-02-13T12:17:05;5.80;83.30
77865;DHT22;67061;48.524;9.040;2023-02-13T12:19:38;5.90;83.10
77865;DHT22;67061;48.524;9.040;2023-02-13T12:22:21;6.20;81.70
77865;DHT22;67061;48.524;9.040;2023-02-13T12:25:03;6.40;79.70
77865;DHT22;67061;48.524;9.040;2023-02-13T12:27:43;6.20;81.40
77865;DHT22;67061;48.524;9.040;2023-02-13T12:30:41;6.70;80.30
77865;DHT22;67061;48.524;9.040;2023-02-13T12:33:22;7.50;76.20
77865;DHT22;67061;48.524;9.040;2023-02-13T12:35:56;8.10;73.70
77865;DHT22;67061;48.524;9.040;2023-02-13T12:38:40;8.30;71.50
77865;DHT22;67061;48.524;9.040;2023-02-13T12:41:17;8.20;72.10
77865;DHT22;67061;48.524;9.040;2023-02-13T12:44:22;8.10;73.20
77865;DHT22;67061;48.524;9.040;2023-02-13T12:47:05;8.90;69.30
77865;DHT22;67061;48.524;9.040;2023-02-13T12:49:58;9.20;68.60
77865;DHT22;67061;48.524;9.040;2023-02-13T12:52:39;9.60;67.50
77865;DHT22;67061;48.524;9.040;2023-02-13T12:55:22;9.20;67.60
77865;DHT22;67061;48.524;9.040;2023-02-13T12:58:02;9.40;67.80
77865;DHT22;67061;48.524;9.040;2023-02-13T13:00:40;9.50;66.70
77865;DHT22;67061;48.524;9.040;2023-02-13T13:03:37;9.70;66.70
77865;DHT22;67061;48.524;9.040;2023-02-13T13:06:16;10.00;65.20
77865;DHT22;67061;48.524;9.040;2023-02-13T13:09:02;10.00;65.10
77865;DHT22;67061;48.524;9.040;2023-02-13T13:11:41;10.20;64.40
77865;DHT22;67061;48.524;9.040;2023-02-13T13:14:16;10.10;64.50
77865;DHT22;67061;48.524;9.040;2023-02-13T13:16:52;10.40;62.90
77865;DHT22;67061;48.524;9.040;2023-02-13T13:19:30;10.50;65.30
77865;DHT22;67061;48.524;9.040;2023-02-13T13:22:03;11.10;62.90
77865;DHT22;67061;48.524;9.040;2023-02-13T13:24:40;11.00;60.10
77865;DHT22;67061;48.524;9.040;2023-02-13T13:27:18;11.10;61.40
77865;DHT22;67061;48.524;9.040;2023-02-13T13:29:49;10.80;61.80
77865;DHT22;67061;48.524;9.040;2023-02-13T13:32:19;10.60;61.80
77865;DHT22;67061;48.524;9.040;2023-02-13T13:34:47;10.50;63.60
77865;DHT22;67061;48.524;9.040;2023-02-13T13:37:20;10.50;62.70
77865;DHT22;67061;48.524;9.040;2023-02-13T13:39:53;10.60;63.90
77865;DHT22;67061;48.524;9.040;2023-02-13T13:42:28;10.50;63.20
77865;DHT22;67061;48.524;9.040;2023-02-13T13:45:19;10.80;61.30
77865;DHT22;67061;48.524;9.040;2023-02-13T13:48:04;10.70;61.50
77865;DHT22;67061;48.524;9.040;2023-02-13T13:50:35;11.20;60.50
77865;DHT22;67061;48.524;9.040;2023-02-13T13:53:07;11.50;59.10
77865;DHT22;67061;48.524;9.040;2023-02-13T13:58:41;11.90;58.30
77865;DHT22;67061;48.524;9.040;2023-02-13T14:01:19;11.50;58.40
77865;DHT22;67061;48.524;9.040;2023-02-13T14:03:49;11.50;58.50
77865;DHT22;67061;48.524;9.040;2023-02-13T14:06:17;11.40;57.20
77865;DHT22;67061;48.524;9.040;2023-02-13T14:08:56;10.60;60.50
77865;DHT22;67061;48.524;9.040;2023-02-13T14:11:41;10.10;61.20
77865;DHT22;67061;48.524;9.040;2023-02-13T14:20:40;9.00;65.90
77865;DHT22;67061;48.524;9.040;2023-02-13T14:23:22;8.60;66.60
77865;DHT22;67061;48.524;9.040;2023-02-13T14:26:10;8.20;69.20
77865;DHT22;67061;48.524;9.040;2023-02-13T14:28:39;8.00;68.80
77865;DHT22;67061;48.524;9.040;2023-02-13T14:31:07;8.00;70.00
77865;DHT22;67061;48.524;9.040;2023-02-13T14:33:40;8.00;70.10
77865;DHT22;67061;48.524;9.040;2023-02-13T14:36:18;7.90;71.40
77865;DHT22;67061;48.524;9.040;2023-02-13T14:38:54;7.90;70.80
77865;DHT22;67061;48.524;9.040;2023-02-13T14:41:41;8.00;71.30
77865;DHT22;67061;48.524;9.040;2023-02-13T14:44:15;7.80;70.70
77865;DHT22;67061;48.524;9.040;2023-02-13T14:46:44;7.80;71.40
77865;DHT22;67061;48.524;9.040;2023-02-13T14:49:16;7.70;71.90
77865;DHT22;67061;48.524;9.040;2023-02-13T14:51:47;7.60;71.60
77865;DHT22;67061;48.524;9.040;2023-02-13T14:54:21;7.80;70.70
77865;DHT22;67061;48.524;9.040;2023-02-13T14:56:51;7.70;71.70
77865;DHT22;67061;48.524;9.040;2023-02-13T14:59:22;7.60;71.70
77865;DHT22;67061;48.524;9.040;2023-02-13T15:01:52;7.50;71.80
77865;DHT22;67061;48.524;9.040;2023-02-13T15:04:26;7.50;72.20
77865;DHT22;67061;48.524;9.040;2023-02-13T15:06:56;7.50;72.20
77865;DHT22;67061;48.524;9.040;2023-02-13T15:09:30;7.50;72.10
77865;DHT22;67061;48.524;9.040;2023-02-13T15:11:58;7.50;71.80
77865;DHT22;67061;48.524;9.040;2023-02-13T15:14:30;7.50;71.70
77865;DHT22;67061;48.524;9.040;2023-02-13T15:17:02;7.40;72.20
77865;DHT22;67061;48.524;9.040;2023-02-13T15:19:34;7.30;72.80
77865;DHT22;67061;48.524;9.040;2023-02-13T15:22:03;7.20;72.90
77865;DHT22;67061;48.524;9.040;2023-02-13T15:24:42;7.20;72.60
77865;DHT22;67061;48.524;9.040;2023-02-13T15:27:17;7.10;73.40
77865;DHT22;67061;48.524;9.040;2023-02-13T15:30:00;7.00;73.50
77865;DHT22;67061;48.524;9.040;2023-02-13T15:32:32;7.10;73.20
77865;DHT22;67061;48.524;9.040;2023-02-13T15:35:16;7.10;73.20
77865;DHT22;67061;48.524;9.040;2023-02-13T15:37:46;7.00;73.50
77865;DHT22;67061;48.524;9.040;2023-02-13T15:40:15;7.00;73.60
77865;DHT22;67061;48.524;9.040;2023-02-13T15:42:42;7.00;73.30
77865;DHT22;67061;48.524;9.040;2023-02-13T15:45:14;6.90;74.10
77865;DHT22;67061;48.524;9.040;2023-02-13T15:47:43;6.80;74.30
77865;DHT22;67061;48.524;9.040;2023-02-13T15:50:17;6.80;74.40
77865;DHT22;67061;48.524;9.040;2023-02-13T15:52:45;6.80;74.40
77865;DHT22;67061;48.524;9.040;2023-02-13T15:55:18;6.80;74.50
77865;DHT22;67061;48.524;9.040;2023-02-13T15:57:46;6.70;74.60
77865;DHT22;67061;48.524;9.040;2023-02-13T16:00:19;6.70;74.70
77865;DHT22;67061;48.524;9.040;2023-02-13T16:02:47;6.60;74.90
77865;DHT22;67061;48.524;9.040;2023-02-13T16:05:16;6.60;75.30
77865;DHT22;67061;48.524;9.040;2023-02-13T16:07:51;6.50;75.60
77865;DHT22;67061;48.524;9.040;2023-02-13T16:10:25;6.50;75.70
77865;DHT22;67061;48.524;9.040;2023-02-13T16:12:53;6.50;75.90
77865;DHT22;67061;48.524;9.040;2023-02-13T16:15:22;6.40;76.20
77865;DHT22;67061;48.524;9.040;2023-02-13T16:17:50;6.30;76.50